createdAt,value
2019-03-18T00:00:16.930Z,4.44
2019-03-18T00:01:16.964Z,4.43
2019-03-18T00:02:16.236Z,4.36
2019-03-18T00:03:16.508Z,4.33
2019-03-18T00:04:16.783Z,4.37
2019-03-18T00:05:17.037Z,4.40
2019-03-18T00:06:16.299Z,4.38
2019-03-18T00:07:16.656Z,4.28
2019-03-18T00:08:16.933Z,4.33
2019-03-18T00:09:17.196Z,4.37
2019-03-18T00:10:16.465Z,4.34
2019-03-18T00:11:16.550Z,4.28
2019-03-18T00:12:16.810Z,4.28
2019-03-18T00:13:17.085Z,4.27
2019-03-18T00:14:16.358Z,4.28
2019-03-18T00:15:16.643Z,4.21
2019-03-18T00:16:16.912Z,4.27
2019-03-18T00:17:17.179Z,4.24
2019-03-18T00:18:16.517Z,4.20
2019-03-18T00:19:16.781Z,4.23
2019-03-18T00:20:17.072Z,4.24
2019-03-18T00:21:17.119Z,4.23
2019-03-18T00:22:16.396Z,4.24
2019-03-18T00:23:16.999Z,4.17
2019-03-18T00:24:16.269Z,4.19
2019-03-18T00:25:16.549Z,4.23
2019-03-18T00:26:16.805Z,4.21
2019-03-18T00:27:17.347Z,4.24
2019-03-18T00:28:16.647Z,4.26
2019-03-18T00:29:16.930Z,4.20
2019-03-18T00:30:17.219Z,4.13
2019-03-18T00:31:16.250Z,4.19
2019-03-18T00:32:16.524Z,4.19
2019-03-18T00:33:16.787Z,4.16
2019-03-18T00:34:17.070Z,4.14
2019-03-18T00:35:16.350Z,4.14
2019-03-18T00:36:16.614Z,4.16
2019-03-18T00:37:16.885Z,4.17
2019-03-18T00:38:17.144Z,4.14
2019-03-18T00:39:16.424Z,4.24
2019-03-18T00:40:16.696Z,4.19
2019-03-18T00:41:16.735Z,4.20
2019-03-18T00:42:17.000Z,4.28
2019-03-18T00:43:16.277Z,4.26
2019-03-18T00:44:16.539Z,4.19
2019-03-18T00:45:16.809Z,4.08
2019-03-18T00:46:17.088Z,3.98
2019-03-18T00:47:16.352Z,3.89
2019-03-18T00:48:16.632Z,3.69
2019-03-18T00:49:16.902Z,3.44
2019-03-18T00:50:17.183Z,3.47
2019-03-18T00:51:16.216Z,3.47
2019-03-18T00:52:16.470Z,3.47
2019-03-18T00:53:16.823Z,3.49
2019-03-18T00:54:16.323Z,3.46
2019-03-18T00:55:16.607Z,3.43
2019-03-18T00:56:16.870Z,3.41
2019-03-18T00:57:17.142Z,3.37
2019-03-18T00:58:16.403Z,3.30
2019-03-18T00:59:16.667Z,3.26
2019-03-18T01:00:16.971Z,3.24
2019-03-18T01:01:17.001Z,3.22
2019-03-18T01:02:16.275Z,3.16
2019-03-18T01:03:16.563Z,3.10
2019-03-18T01:04:16.826Z,3.07
2019-03-18T01:05:17.091Z,3.04
2019-03-18T01:06:16.344Z,3.04
2019-03-18T01:07:16.624Z,3.02
2019-03-18T01:08:16.894Z,3.02
2019-03-18T01:09:17.164Z,3.03
2019-03-18T01:10:16.439Z,3.00
2019-03-18T01:11:16.505Z,2.96
2019-03-18T01:12:16.771Z,2.99
2019-03-18T01:13:17.034Z,2.98
2019-03-18T01:14:16.302Z,2.98
2019-03-18T01:15:27.093Z,2.91
2019-03-18T01:16:17.004Z,2.93
2019-03-18T01:17:16.351Z,2.98
2019-03-18T01:18:16.611Z,3.02
2019-03-18T01:19:16.875Z,2.95
2019-03-18T01:20:17.146Z,3.00
2019-03-18T01:21:17.207Z,3.10
2019-03-18T01:22:16.479Z,3.10
2019-03-18T01:23:16.761Z,3.16
2019-03-18T01:24:17.178Z,3.12
2019-03-18T01:25:16.441Z,3.12
2019-03-18T01:26:16.712Z,3.22
2019-03-18T01:27:16.978Z,3.27
2019-03-18T01:28:16.250Z,3.39
2019-03-18T01:29:16.533Z,3.30
2019-03-18T01:30:16.808Z,3.30
2019-03-18T01:31:16.845Z,3.28
2019-03-18T01:32:17.108Z,3.24
2019-03-18T01:33:16.370Z,3.30
2019-03-18T01:34:16.623Z,3.30
2019-03-18T01:35:16.876Z,3.33
2019-03-18T01:36:17.135Z,3.28
2019-03-18T01:37:16.407Z,3.17
2019-03-18T01:38:16.674Z,3.22
2019-03-18T01:39:16.947Z,3.30
2019-03-18T01:40:16.232Z,3.33
2019-03-18T01:41:16.272Z,3.30
2019-03-18T01:42:16.785Z,3.27
2019-03-18T01:43:16.307Z,3.33
2019-03-18T01:44:16.582Z,3.31
2019-03-18T01:45:16.849Z,3.24
2019-03-18T01:46:17.115Z,3.33
2019-03-18T01:47:16.386Z,3.30
2019-03-18T01:48:16.659Z,3.36
2019-03-18T01:49:16.915Z,3.36
2019-03-18T01:50:17.201Z,3.44
2019-03-18T01:51:16.235Z,3.39
2019-03-18T01:52:16.499Z,3.41
2019-03-18T01:53:16.756Z,3.37
2019-03-18T01:54:16.326Z,3.28
2019-03-18T01:55:16.588Z,3.26
2019-03-18T01:56:16.858Z,3.24
2019-03-18T01:57:17.128Z,3.33
2019-03-18T01:58:16.412Z,3.24
2019-03-18T01:59:16.675Z,3.24
2019-03-18T02:00:17.033Z,3.26
2019-03-18T02:01:16.981Z,3.26
2019-03-18T02:02:16.266Z,3.30
2019-03-18T02:03:16.761Z,3.27
2019-03-18T02:04:17.046Z,3.30
2019-03-18T02:05:16.308Z,3.36
2019-03-18T02:06:16.579Z,3.44
2019-03-18T02:07:16.837Z,3.40
2019-03-18T02:08:17.107Z,3.40
2019-03-18T02:09:16.367Z,3.39
2019-03-18T02:10:16.640Z,3.33
2019-03-18T02:11:16.682Z,3.23
2019-03-18T02:12:16.945Z,3.24
2019-03-18T02:13:16.209Z,3.28
2019-03-18T02:14:16.475Z,3.26
2019-03-18T02:15:16.739Z,3.22
2019-03-18T02:16:17.015Z,3.24
2019-03-18T02:17:16.276Z,3.26
2019-03-18T02:18:16.552Z,3.20
2019-03-18T02:19:16.828Z,3.17
2019-03-18T02:20:19.539Z,3.30
2019-03-18T02:21:17.149Z,3.26
2019-03-18T02:22:16.417Z,3.28
2019-03-18T02:23:16.682Z,3.27
2019-03-18T02:24:16.943Z,3.24
2019-03-18T02:25:16.211Z,3.24
2019-03-18T02:26:16.486Z,3.19
2019-03-18T02:27:16.753Z,3.13
2019-03-18T02:28:17.014Z,3.13
2019-03-18T02:29:16.306Z,3.14
2019-03-18T02:30:16.594Z,3.12
2019-03-18T02:31:16.619Z,3.14
2019-03-18T02:32:16.907Z,3.13
2019-03-18T02:33:17.182Z,3.13
2019-03-18T02:34:16.466Z,3.20
2019-03-18T02:35:16.809Z,3.17
2019-03-18T02:36:17.198Z,3.16
2019-03-18T02:37:16.482Z,3.17
2019-03-18T02:38:16.788Z,3.19
2019-03-18T02:39:17.204Z,3.27
2019-03-18T02:40:16.496Z,3.27
2019-03-18T02:41:16.591Z,3.28
2019-03-18T02:42:16.872Z,3.33
2019-03-18T02:43:17.157Z,3.37
2019-03-18T02:44:16.428Z,3.28
2019-03-18T02:45:16.733Z,3.28
2019-03-18T02:46:17.015Z,3.31
2019-03-18T02:47:16.290Z,3.26
2019-03-18T02:48:16.577Z,3.22
2019-03-18T02:49:16.852Z,3.17
2019-03-18T02:50:17.146Z,3.13
2019-03-18T02:51:17.185Z,3.20
2019-03-18T02:52:16.448Z,3.19
2019-03-18T02:53:16.726Z,3.19
2019-03-18T02:54:16.997Z,3.19
2019-03-18T02:55:16.288Z,3.23
2019-03-18T02:56:16.595Z,3.17
2019-03-18T02:57:16.873Z,3.12
2019-03-18T02:58:17.170Z,3.07
2019-03-18T02:59:16.441Z,3.04
2019-03-18T03:00:16.727Z,2.99
2019-03-18T03:01:16.852Z,2.99
2019-03-18T03:02:17.139Z,2.99
2019-03-18T03:03:16.423Z,3.03
2019-03-18T03:04:16.696Z,3.06
2019-03-18T03:05:16.987Z,3.04
2019-03-18T03:06:16.270Z,3.02
2019-03-18T03:07:16.542Z,3.04
2019-03-18T03:08:16.814Z,2.98
2019-03-18T03:09:17.108Z,2.96
2019-03-18T03:10:16.404Z,3.02
2019-03-18T03:11:16.433Z,3.09
2019-03-18T03:12:16.707Z,3.09
2019-03-18T03:13:16.963Z,2.96
2019-03-18T03:14:16.235Z,3.00
2019-03-18T03:15:16.630Z,2.95
2019-03-18T03:16:25.955Z,2.95
2019-03-18T03:17:19.776Z,2.93
2019-03-18T03:18:16.477Z,2.93
2019-03-18T03:19:16.745Z,2.95
2019-03-18T03:20:17.156Z,2.89
2019-03-18T03:21:17.193Z,2.89
2019-03-18T03:22:16.469Z,2.82
2019-03-18T03:23:16.733Z,2.84
2019-03-18T03:24:17.004Z,2.84
2019-03-18T03:25:16.272Z,2.85
2019-03-18T03:26:16.558Z,2.82
2019-03-18T03:27:16.822Z,2.84
2019-03-18T03:28:17.102Z,2.84
2019-03-18T03:29:16.379Z,2.81
2019-03-18T03:30:16.694Z,2.85
2019-03-18T03:31:16.754Z,2.84
2019-03-18T03:32:17.097Z,2.78
2019-03-18T03:33:16.382Z,2.71
2019-03-18T03:34:16.672Z,2.68
2019-03-18T03:35:16.956Z,2.72
2019-03-18T03:36:16.241Z,2.72
2019-03-18T03:37:16.532Z,2.71
2019-03-18T03:38:16.798Z,2.69
2019-03-18T03:39:17.094Z,2.72
2019-03-18T03:40:16.375Z,2.71
2019-03-18T03:41:17.978Z,2.71
2019-03-18T03:42:17.040Z,2.78
2019-03-18T03:43:16.305Z,2.65
2019-03-18T03:44:16.567Z,2.65
2019-03-18T03:45:16.868Z,2.68
2019-03-18T03:46:17.141Z,2.71
2019-03-18T03:47:16.409Z,2.75
2019-03-18T03:48:16.681Z,2.72
2019-03-18T03:49:16.961Z,2.78
2019-03-18T03:50:16.265Z,2.69
2019-03-18T03:51:16.298Z,2.68
2019-03-18T03:52:16.572Z,2.65
2019-03-18T03:53:16.830Z,2.75
2019-03-18T03:54:17.088Z,2.72
2019-03-18T03:55:16.375Z,2.65
2019-03-18T03:56:16.314Z,2.67
2019-03-18T03:57:16.270Z,2.63
2019-03-18T03:58:16.537Z,2.61
2019-03-18T03:59:16.800Z,2.60
2019-03-18T04:00:17.084Z,2.57
2019-03-18T04:01:17.139Z,2.54
2019-03-18T04:02:16.413Z,2.48
2019-03-18T04:03:16.678Z,2.48
2019-03-18T04:04:16.969Z,2.47
2019-03-18T04:05:16.271Z,2.47
2019-03-18T04:06:16.549Z,2.45
2019-03-18T04:07:16.819Z,2.47
2019-03-18T04:08:17.131Z,2.43
2019-03-18T04:09:16.401Z,2.51
2019-03-18T04:10:16.666Z,2.45
2019-03-18T04:11:16.722Z,2.45
2019-03-18T04:12:16.991Z,2.44
2019-03-18T04:13:16.256Z,2.38
2019-03-18T04:14:16.531Z,2.40
2019-03-18T04:15:16.800Z,2.41
2019-03-18T04:16:17.140Z,2.34
2019-03-18T04:17:16.412Z,2.30
2019-03-18T04:18:16.684Z,2.24
2019-03-18T04:19:17.081Z,2.13
2019-03-18T04:20:16.362Z,2.13
2019-03-18T04:21:16.500Z,2.10
2019-03-18T04:22:16.776Z,2.16
2019-03-18T04:23:17.042Z,2.16
2019-03-18T04:24:16.337Z,2.06
2019-03-18T04:25:16.608Z,2.07
2019-03-18T04:26:16.887Z,2.03
2019-03-18T04:27:17.154Z,2.02
2019-03-18T04:28:16.419Z,2.03
2019-03-18T04:29:16.690Z,2.00
2019-03-18T04:30:16.979Z,2.00
2019-03-18T04:31:17.023Z,1.98
2019-03-18T04:32:16.316Z,1.96
2019-03-18T04:33:16.584Z,2.02
2019-03-18T04:34:16.849Z,2.09
2019-03-18T04:35:17.132Z,2.05
2019-03-18T04:36:16.413Z,2.13
2019-03-18T04:37:17.015Z,2.17
2019-03-18T04:38:16.283Z,2.20
2019-03-18T04:39:16.543Z,2.06
2019-03-18T04:40:16.824Z,1.96
2019-03-18T04:41:16.858Z,1.95
2019-03-18T04:42:17.138Z,1.95
2019-03-18T04:43:16.404Z,1.98
2019-03-18T04:44:16.677Z,1.99
2019-03-18T04:45:16.948Z,1.95
2019-03-18T04:46:16.206Z,1.90
2019-03-18T04:47:16.468Z,1.86
2019-03-18T04:48:16.731Z,1.83
2019-03-18T04:49:17.003Z,1.86
2019-03-18T04:50:16.271Z,1.88
2019-03-18T04:51:16.329Z,1.81
2019-03-18T04:52:16.594Z,1.81
2019-03-18T04:53:16.862Z,1.74
2019-03-18T04:54:17.126Z,1.68
2019-03-18T04:55:16.388Z,1.62
2019-03-18T04:56:16.644Z,1.71
2019-03-18T04:57:16.906Z,1.64
2019-03-18T04:58:17.170Z,1.61
2019-03-18T04:59:16.427Z,1.61
2019-03-18T05:00:16.700Z,1.51
2019-03-18T05:01:16.774Z,1.51
2019-03-18T05:02:17.062Z,1.50
2019-03-18T05:03:16.405Z,1.51
2019-03-18T05:04:16.672Z,1.50
2019-03-18T05:05:16.941Z,1.50
2019-03-18T05:06:16.216Z,1.43
2019-03-18T05:07:16.478Z,1.40
2019-03-18T05:08:16.745Z,1.41
2019-03-18T05:09:17.016Z,1.40
2019-03-18T05:10:16.280Z,1.40
2019-03-18T05:11:16.337Z,1.31
2019-03-18T05:12:16.592Z,1.33
2019-03-18T05:13:16.863Z,1.34
2019-03-18T05:14:17.137Z,1.29
2019-03-18T05:15:16.417Z,1.23
2019-03-18T05:16:16.682Z,1.18
2019-03-18T05:17:26.039Z,1.16
2019-03-18T05:18:16.371Z,1.13
2019-03-18T05:19:16.643Z,1.13
2019-03-18T05:20:16.918Z,1.10
2019-03-18T05:21:16.964Z,1.10
2019-03-18T05:22:16.238Z,1.02
2019-03-18T05:23:16.506Z,1.07
2019-03-18T05:24:16.775Z,0.99
2019-03-18T05:25:17.080Z,0.99
2019-03-18T05:26:16.363Z,1.00
2019-03-18T05:27:16.639Z,1.00
2019-03-18T05:28:16.913Z,0.96
2019-03-18T05:29:17.175Z,0.96
2019-03-18T05:30:16.457Z,0.93
2019-03-18T05:31:16.486Z,0.89
2019-03-18T05:32:16.757Z,0.93
2019-03-18T05:33:17.020Z,0.89
2019-03-18T05:34:16.295Z,0.86
2019-03-18T05:35:16.563Z,0.83
2019-03-18T05:36:16.845Z,0.85
2019-03-18T05:37:17.127Z,0.83
2019-03-18T05:38:16.399Z,0.83
2019-03-18T05:39:16.664Z,0.89
2019-03-18T05:40:16.933Z,0.89
2019-03-18T05:41:16.974Z,0.89
2019-03-18T05:42:16.250Z,0.89
2019-03-18T05:43:16.552Z,0.95
2019-03-18T05:44:16.823Z,0.93
2019-03-18T05:45:17.111Z,0.98
2019-03-18T05:46:16.388Z,0.93
2019-03-18T05:47:16.651Z,0.95
2019-03-18T05:48:16.914Z,0.91
2019-03-18T05:49:17.194Z,0.98
2019-03-18T05:50:16.476Z,0.98
2019-03-18T05:51:16.525Z,0.99
2019-03-18T05:52:16.789Z,0.95
2019-03-18T05:53:17.049Z,0.99
2019-03-18T05:54:16.450Z,0.95
2019-03-18T05:55:16.720Z,0.95
2019-03-18T05:56:16.984Z,0.96
2019-03-18T05:57:16.260Z,0.96
2019-03-18T05:58:16.595Z,0.92
2019-03-18T05:59:17.114Z,0.95
2019-03-18T06:00:16.404Z,0.96
2019-03-18T06:01:16.438Z,0.96
2019-03-18T06:02:16.704Z,0.93
2019-03-18T06:03:16.967Z,0.95
2019-03-18T06:04:16.229Z,0.99
2019-03-18T06:05:16.520Z,0.95
2019-03-18T06:06:16.787Z,0.98
2019-03-18T06:07:17.059Z,1.06
2019-03-18T06:08:16.327Z,1.02
2019-03-18T06:09:16.605Z,1.06
2019-03-18T06:10:16.876Z,1.02
2019-03-18T06:11:16.925Z,1.00
2019-03-18T06:12:17.186Z,1.03
2019-03-18T06:13:16.468Z,1.07
2019-03-18T06:14:16.744Z,1.07
2019-03-18T06:15:17.039Z,1.04
2019-03-18T06:16:16.299Z,1.00
2019-03-18T06:17:16.569Z,1.04
2019-03-18T06:18:16.895Z,1.04
2019-03-18T06:19:17.153Z,1.03
2019-03-18T06:20:16.423Z,1.03
2019-03-18T06:21:16.464Z,1.02
2019-03-18T06:22:16.739Z,0.99
2019-03-18T06:23:17.007Z,0.98
2019-03-18T06:24:16.266Z,0.98
2019-03-18T06:25:16.532Z,1.09
2019-03-18T06:26:16.853Z,1.10
2019-03-18T06:27:17.131Z,1.15
2019-03-18T06:28:16.391Z,1.12
2019-03-18T06:29:16.664Z,1.12
2019-03-18T06:30:16.944Z,1.09
2019-03-18T06:31:17.000Z,1.06
2019-03-18T06:32:16.261Z,1.12
2019-03-18T06:33:16.522Z,1.09
2019-03-18T06:34:16.785Z,1.12
2019-03-18T06:35:17.075Z,1.13
2019-03-18T06:36:16.582Z,1.19
2019-03-18T06:37:16.847Z,1.20
2019-03-18T06:38:17.375Z,1.20
2019-03-18T06:39:16.644Z,1.26
2019-03-18T06:40:16.918Z,1.23
2019-03-18T06:41:16.975Z,1.20
2019-03-18T06:42:18.529Z,1.34
2019-03-18T06:43:17.145Z,1.39
2019-03-18T06:44:16.415Z,1.41
2019-03-18T06:45:16.681Z,1.48
2019-03-18T06:46:16.943Z,1.65
2019-03-18T06:47:16.208Z,1.72
2019-03-18T06:48:16.465Z,1.79
2019-03-18T06:49:16.733Z,1.85
2019-03-18T06:50:17.009Z,2.02
2019-03-18T06:51:17.049Z,2.13
2019-03-18T06:52:16.330Z,2.41
2019-03-18T06:53:16.591Z,2.44
2019-03-18T06:54:16.861Z,2.54
2019-03-18T06:55:17.124Z,2.60
2019-03-18T06:56:16.395Z,2.72
2019-03-18T06:57:16.662Z,2.76
2019-03-18T06:58:16.934Z,2.82
2019-03-18T06:59:17.215Z,2.81
2019-03-18T07:00:16.494Z,2.92
2019-03-18T07:01:16.559Z,3.02
2019-03-18T07:02:16.813Z,3.09
2019-03-18T07:03:17.075Z,3.12
2019-03-18T07:04:16.335Z,3.14
2019-03-18T07:05:16.608Z,3.16
2019-03-18T07:06:16.872Z,3.17
2019-03-18T07:07:17.135Z,3.16
2019-03-18T07:08:16.403Z,3.22
2019-03-18T07:09:16.667Z,3.22
2019-03-18T07:10:16.947Z,3.24
2019-03-18T07:11:16.979Z,3.26
2019-03-18T07:12:16.309Z,3.28
2019-03-18T07:13:16.565Z,3.30
2019-03-18T07:14:16.843Z,3.31
2019-03-18T07:15:17.118Z,3.36
2019-03-18T07:16:16.386Z,3.34
2019-03-18T07:17:16.652Z,3.39
2019-03-18T07:18:17.860Z,3.39
2019-03-18T07:19:16.394Z,3.43
2019-03-18T07:20:16.672Z,3.40
2019-03-18T07:21:16.720Z,3.41
2019-03-18T07:22:17.022Z,3.40
2019-03-18T07:23:16.308Z,3.44
2019-03-18T07:24:16.582Z,3.49
2019-03-18T07:25:16.851Z,3.55
2019-03-18T07:26:17.168Z,3.60
2019-03-18T07:27:16.430Z,3.60
2019-03-18T07:28:18.089Z,3.64
2019-03-18T07:29:16.533Z,3.58
2019-03-18T07:30:16.812Z,3.58
2019-03-18T07:31:16.863Z,3.67
2019-03-18T07:32:17.131Z,3.67
2019-03-18T07:33:16.396Z,3.64
2019-03-18T07:34:16.707Z,3.65
2019-03-18T07:35:16.964Z,3.64
2019-03-18T07:36:16.229Z,3.62
2019-03-18T07:37:16.491Z,3.60
2019-03-18T07:38:16.754Z,3.64
2019-03-18T07:39:17.019Z,3.64
2019-03-18T07:40:16.289Z,3.71
2019-03-18T07:41:16.346Z,3.62
2019-03-18T07:42:16.606Z,3.61
2019-03-18T07:43:16.871Z,3.60
2019-03-18T07:44:17.446Z,3.57
2019-03-18T07:45:16.727Z,3.60
2019-03-18T07:46:16.994Z,3.60
2019-03-18T07:47:16.254Z,3.60
2019-03-18T07:48:16.516Z,3.60
2019-03-18T07:49:16.784Z,3.62
2019-03-18T07:50:17.072Z,3.61
2019-03-18T07:51:17.114Z,3.57
2019-03-18T07:52:16.387Z,3.60
2019-03-18T07:53:18.248Z,3.60
2019-03-18T07:54:16.674Z,3.60
2019-03-18T07:55:16.939Z,3.57
2019-03-18T07:56:16.208Z,3.60
2019-03-18T07:57:16.467Z,3.62
2019-03-18T07:58:16.732Z,3.69
2019-03-18T07:59:17.001Z,3.65
2019-03-18T08:00:16.285Z,3.65
2019-03-18T08:01:16.331Z,3.62
2019-03-18T08:02:16.600Z,3.71
2019-03-18T08:03:16.865Z,3.61
2019-03-18T08:04:17.133Z,3.64
2019-03-18T08:05:16.399Z,3.60
2019-03-18T08:06:16.663Z,3.64
2019-03-18T08:07:16.924Z,3.72
2019-03-18T08:08:17.207Z,3.78
2019-03-18T08:09:16.495Z,3.69
2019-03-18T08:10:16.807Z,3.74
2019-03-18T08:11:16.848Z,3.82
2019-03-18T08:12:17.117Z,3.64
2019-03-18T08:13:16.440Z,3.71
2019-03-18T08:14:16.710Z,3.71
2019-03-18T08:15:16.971Z,3.62
2019-03-18T08:16:16.240Z,3.67
2019-03-18T08:17:16.523Z,3.72
2019-03-18T08:18:16.787Z,3.81
2019-03-18T08:19:17.068Z,3.88
2019-03-18T08:20:16.360Z,3.88
2019-03-18T08:21:16.406Z,3.82
2019-03-18T08:22:16.672Z,3.90
2019-03-18T08:23:16.940Z,4.05
2019-03-18T08:24:16.216Z,3.99
2019-03-18T08:25:16.499Z,3.89
2019-03-18T08:26:16.755Z,3.93
2019-03-18T08:27:17.019Z,3.96
2019-03-18T08:28:16.296Z,4.05
2019-03-18T08:29:16.555Z,3.93
2019-03-18T08:30:16.831Z,3.95
2019-03-18T08:31:16.860Z,3.95
2019-03-18T08:32:17.132Z,3.99
2019-03-18T08:33:16.405Z,4.16
2019-03-18T08:34:16.686Z,4.31
2019-03-18T08:35:16.945Z,4.44
2019-03-18T08:36:16.215Z,4.37
2019-03-18T08:37:16.476Z,4.40
2019-03-18T08:38:16.737Z,4.40
2019-03-18T08:39:16.998Z,4.46
2019-03-18T08:40:16.294Z,4.55
2019-03-18T08:41:16.348Z,4.50
2019-03-18T08:42:16.639Z,4.50
2019-03-18T08:43:16.910Z,4.46
2019-03-18T08:44:17.179Z,4.51
2019-03-18T08:45:16.453Z,4.55
2019-03-18T08:46:16.736Z,4.55
2019-03-18T08:47:17.010Z,4.44
2019-03-18T08:48:16.269Z,4.51
2019-03-18T08:49:16.530Z,4.60
2019-03-18T08:50:16.814Z,4.64
2019-03-18T08:51:16.871Z,4.74
2019-03-18T08:52:17.139Z,4.82
2019-03-18T08:53:16.403Z,4.65
2019-03-18T08:54:16.674Z,4.63
2019-03-18T08:55:16.931Z,4.72
2019-03-18T08:56:17.198Z,4.67
2019-03-18T08:57:16.476Z,4.68
2019-03-18T08:58:16.741Z,4.79
2019-03-18T08:59:17.003Z,4.92
2019-03-18T09:00:16.277Z,4.78
2019-03-18T09:01:16.351Z,4.84
2019-03-18T09:02:16.620Z,4.99
2019-03-18T09:03:16.896Z,4.96
2019-03-18T09:04:17.161Z,4.88
2019-03-18T09:05:16.426Z,4.72
2019-03-18T09:06:16.686Z,4.75
2019-03-18T09:07:16.948Z,4.96
2019-03-18T09:08:16.207Z,5.05
2019-03-18T09:09:16.476Z,5.00
2019-03-18T09:10:16.781Z,4.98
2019-03-18T09:11:16.830Z,4.88
2019-03-18T09:12:17.095Z,4.84
2019-03-18T09:13:16.381Z,4.91
2019-03-18T09:14:16.647Z,4.81
2019-03-18T09:15:16.931Z,4.71
2019-03-18T09:16:17.222Z,4.91
2019-03-18T09:17:16.483Z,4.93
2019-03-18T09:18:16.751Z,4.82
2019-03-18T09:19:17.013Z,4.89
2019-03-18T09:20:16.287Z,4.92
2019-03-18T09:21:16.339Z,4.92
2019-03-18T09:22:16.623Z,4.91
2019-03-18T09:23:16.886Z,4.89
2019-03-18T09:24:17.141Z,4.92
2019-03-18T09:25:16.412Z,4.99
2019-03-18T09:26:16.678Z,4.99
2019-03-18T09:27:16.947Z,4.96
2019-03-18T09:28:16.212Z,4.98
2019-03-18T09:29:16.479Z,4.82
2019-03-18T09:30:16.759Z,5.00
2019-03-18T09:31:16.891Z,5.00
2019-03-18T09:32:16.332Z,5.03
2019-03-18T09:33:16.612Z,4.99
2019-03-18T09:34:16.876Z,4.76
2019-03-18T09:35:17.146Z,4.75
2019-03-18T09:36:16.428Z,4.78
2019-03-18T09:37:16.687Z,4.72
2019-03-18T09:38:16.957Z,4.78
2019-03-18T09:39:16.216Z,4.65
2019-03-18T09:40:16.502Z,4.81
2019-03-18T09:41:16.537Z,4.68
2019-03-18T09:42:17.961Z,4.78
2019-03-18T09:43:16.517Z,4.99
2019-03-18T09:44:16.795Z,5.03
2019-03-18T09:45:17.090Z,4.95
2019-03-18T09:46:16.353Z,5.02
2019-03-18T09:47:16.615Z,4.93
2019-03-18T09:48:16.890Z,5.19
2019-03-18T09:49:21.764Z,5.37
2019-03-18T09:50:16.617Z,5.33
2019-03-18T09:51:16.681Z,5.44
2019-03-18T09:52:16.949Z,5.31
2019-03-18T09:53:16.246Z,5.34
2019-03-18T09:54:16.530Z,5.52
2019-03-18T09:55:16.789Z,5.44
2019-03-18T09:56:17.051Z,5.55
2019-03-18T09:57:25.279Z,5.38
2019-03-18T09:58:16.865Z,5.20
2019-03-18T09:59:17.124Z,5.38
2019-03-18T10:00:16.491Z,5.43
2019-03-18T10:01:16.516Z,5.57
2019-03-18T10:02:16.779Z,5.70
2019-03-18T10:03:17.037Z,5.77
2019-03-18T10:04:16.327Z,5.57
2019-03-18T10:05:16.600Z,5.47
2019-03-18T10:06:16.869Z,5.33
2019-03-18T10:07:17.139Z,5.48
2019-03-18T10:08:16.407Z,5.45
2019-03-18T10:09:16.673Z,5.50
2019-03-18T10:10:16.949Z,5.16
2019-03-18T10:11:17.022Z,5.26
2019-03-18T10:12:16.285Z,5.28
2019-03-18T10:13:16.555Z,5.44
2019-03-18T10:14:19.493Z,5.50
2019-03-18T10:15:17.146Z,5.55
2019-03-18T10:16:16.440Z,5.55
2019-03-18T10:17:16.709Z,5.52
2019-03-18T10:18:16.978Z,5.60
2019-03-18T10:19:16.243Z,5.54
2019-03-18T10:20:16.526Z,5.60
2019-03-18T10:21:16.578Z,5.71
2019-03-18T10:22:16.845Z,5.79
2019-03-18T10:23:17.114Z,5.81
2019-03-18T10:24:16.370Z,5.98
2019-03-18T10:25:16.651Z,6.17
2019-03-18T10:26:16.918Z,6.23
2019-03-18T10:27:17.183Z,6.27
2019-03-18T10:28:16.674Z,6.37
2019-03-18T10:29:17.014Z,6.38
2019-03-18T10:30:16.303Z,6.34
2019-03-18T10:31:16.343Z,6.47
2019-03-18T10:32:16.615Z,6.78
2019-03-18T10:33:16.885Z,6.54
2019-03-18T10:34:17.180Z,6.47
2019-03-18T10:35:16.460Z,6.31
2019-03-18T10:36:16.736Z,6.03
2019-03-18T10:37:16.999Z,6.02
2019-03-18T10:38:16.297Z,6.03
2019-03-18T10:39:16.564Z,6.10
2019-03-18T10:40:16.830Z,6.24
2019-03-18T10:41:16.876Z,6.24
2019-03-18T10:42:17.142Z,6.49
2019-03-18T10:43:16.408Z,6.48
2019-03-18T10:44:16.676Z,6.63
2019-03-18T10:45:16.949Z,6.63
2019-03-18T10:46:16.217Z,6.34
2019-03-18T10:47:16.494Z,6.54
2019-03-18T10:48:16.771Z,6.51
2019-03-18T10:49:17.049Z,6.37
2019-03-18T10:50:16.334Z,6.36
2019-03-18T10:51:16.381Z,6.29
2019-03-18T10:52:16.667Z,6.40
2019-03-18T10:53:16.954Z,6.29
2019-03-18T10:54:16.217Z,6.36
2019-03-18T10:55:16.561Z,6.27
2019-03-18T10:56:16.849Z,6.34
2019-03-18T10:57:17.126Z,6.26
2019-03-18T10:58:18.067Z,6.30
2019-03-18T10:59:16.645Z,6.13
2019-03-18T11:00:16.928Z,6.30
2019-03-18T11:01:16.975Z,6.21
2019-03-18T11:02:16.242Z,6.23
2019-03-18T11:03:16.511Z,6.34
2019-03-18T11:04:16.774Z,6.23
2019-03-18T11:05:17.039Z,6.08
2019-03-18T11:06:16.348Z,6.16
2019-03-18T11:07:16.619Z,6.13
2019-03-18T11:08:16.893Z,5.93
2019-03-18T11:09:17.185Z,5.96
2019-03-18T11:10:16.458Z,6.14
2019-03-18T11:11:16.514Z,6.12
2019-03-18T11:12:16.780Z,5.99
2019-03-18T11:13:17.041Z,6.05
2019-03-18T11:14:16.301Z,6.20
2019-03-18T11:15:16.566Z,6.24
2019-03-18T11:16:16.850Z,6.44
2019-03-18T11:17:17.122Z,6.49
2019-03-18T11:18:16.412Z,6.26
2019-03-18T11:19:16.687Z,6.24
2019-03-18T11:20:16.961Z,6.33
2019-03-18T11:21:17.022Z,6.26
2019-03-18T11:22:16.287Z,6.30
2019-03-18T11:23:16.591Z,6.45
2019-03-18T11:24:16.863Z,6.21
2019-03-18T11:25:17.130Z,6.44
2019-03-18T11:26:16.426Z,6.51
2019-03-18T11:27:16.696Z,6.31
2019-03-18T11:28:17.024Z,6.21
2019-03-18T11:29:16.296Z,6.17
2019-03-18T11:30:16.591Z,6.13
2019-03-18T11:31:16.620Z,6.09
2019-03-18T11:32:16.885Z,6.05
2019-03-18T11:33:17.170Z,6.02
2019-03-18T11:34:16.442Z,6.09
2019-03-18T11:35:16.719Z,6.05
2019-03-18T11:36:16.991Z,6.08
2019-03-18T11:37:16.261Z,6.17
2019-03-18T11:38:16.524Z,6.24
2019-03-18T11:39:16.834Z,6.21
2019-03-18T11:40:17.135Z,6.17
2019-03-18T11:41:17.542Z,5.99
2019-03-18T11:42:16.987Z,5.99
2019-03-18T11:43:16.257Z,5.98
2019-03-18T11:44:16.529Z,5.88
2019-03-18T11:45:16.798Z,5.92
2019-03-18T11:46:17.079Z,5.77
2019-03-18T11:47:16.338Z,5.81
2019-03-18T11:48:16.606Z,5.79
2019-03-18T11:49:16.865Z,5.75
2019-03-18T11:50:17.131Z,5.75
2019-03-18T11:51:17.170Z,5.75
2019-03-18T11:52:16.451Z,5.75
2019-03-18T11:53:16.731Z,5.88
2019-03-18T11:54:17.012Z,5.75
2019-03-18T11:55:16.276Z,5.72
2019-03-18T11:56:16.553Z,5.71
2019-03-18T11:57:16.832Z,5.77
2019-03-18T11:58:17.128Z,5.79
2019-03-18T11:59:16.407Z,5.81
2019-03-18T12:00:16.672Z,5.81
2019-03-18T12:01:16.729Z,5.89
2019-03-18T12:02:27.120Z,5.84
2019-03-18T12:03:16.410Z,5.89
2019-03-18T12:04:16.679Z,5.91
2019-03-18T12:05:17.038Z,5.89
2019-03-18T12:06:16.303Z,6.03
2019-03-18T12:07:16.570Z,6.08
2019-03-18T12:08:16.831Z,5.74
2019-03-18T12:09:17.113Z,5.82
2019-03-18T12:10:16.386Z,6.02
2019-03-18T12:11:16.439Z,6.24
2019-03-18T12:12:16.710Z,6.37
2019-03-18T12:13:16.975Z,6.08
2019-03-18T12:14:16.246Z,6.16
2019-03-18T12:15:16.548Z,6.17
2019-03-18T12:16:16.812Z,6.33
2019-03-18T12:17:17.068Z,6.61
2019-03-18T12:18:16.335Z,6.31
2019-03-18T12:19:16.608Z,6.05
2019-03-18T12:20:23.976Z,6.12
2019-03-18T12:21:16.943Z,6.08
2019-03-18T12:22:16.204Z,6.24
2019-03-18T12:23:16.473Z,6.02
2019-03-18T12:24:16.915Z,6.45
2019-03-18T12:25:17.197Z,6.44
2019-03-18T12:26:16.457Z,6.13
2019-03-18T12:27:16.723Z,6.09
2019-03-18T12:28:16.990Z,6.16
2019-03-18T12:29:16.258Z,6.27
2019-03-18T12:30:16.547Z,6.23
2019-03-18T12:31:16.571Z,6.13
2019-03-18T12:32:16.845Z,6.21
2019-03-18T12:33:17.114Z,6.38
2019-03-18T12:34:16.387Z,6.49
2019-03-18T12:35:16.662Z,6.45
2019-03-18T12:36:16.932Z,6.47
2019-03-18T12:37:17.205Z,6.52
2019-03-18T12:38:16.460Z,6.33
2019-03-18T12:39:16.703Z,6.33
2019-03-18T12:40:16.971Z,6.27
2019-03-18T12:41:17.036Z,6.34
2019-03-18T12:42:16.310Z,6.31
2019-03-18T12:43:16.584Z,6.26
2019-03-18T12:44:16.844Z,6.45
2019-03-18T12:45:17.120Z,6.48
2019-03-18T12:46:16.391Z,6.45
2019-03-18T12:47:16.683Z,6.51
2019-03-18T12:48:16.955Z,6.44
2019-03-18T12:49:16.236Z,6.54
2019-03-18T12:50:16.511Z,6.68
2019-03-18T12:51:16.555Z,6.75
2019-03-18T12:52:16.827Z,6.74
2019-03-18T12:53:17.101Z,6.84
2019-03-18T12:54:16.371Z,6.81
2019-03-18T12:55:16.639Z,6.78
2019-03-18T12:56:16.911Z,6.81
2019-03-18T12:57:17.191Z,6.81
2019-03-18T12:58:16.452Z,6.81
2019-03-18T12:59:16.732Z,6.81
2019-03-18T13:00:17.037Z,6.85
2019-03-18T13:01:17.095Z,6.79
2019-03-18T13:02:16.374Z,6.65
2019-03-18T13:03:16.647Z,6.67
2019-03-18T13:04:16.902Z,6.65
2019-03-18T13:05:17.166Z,6.68
2019-03-18T13:06:16.435Z,6.69
2019-03-18T13:07:16.708Z,6.54
2019-03-18T13:08:16.980Z,6.45
2019-03-18T13:09:16.256Z,6.55
2019-03-18T13:10:16.521Z,6.51
2019-03-18T13:11:16.575Z,6.59
2019-03-18T13:12:16.855Z,6.55
2019-03-18T13:13:17.128Z,6.58
2019-03-18T13:14:16.382Z,6.41
2019-03-18T13:15:16.649Z,6.43
2019-03-18T13:16:18.145Z,6.45
2019-03-18T13:17:16.683Z,6.45
2019-03-18T13:18:16.941Z,6.51